Lady Eman — 5IM513 — position and weather

sailwx.info

Track history (hours):
 
Tides and Currents Weather Stations Pressure Air Temp Water Temp Dewpoint Dewpoint Depression Visibility Wind Speed Wind Dir Waves Ship Positions

Lady Eman

Last reported at 2016-Apr-18 19:33 UTC. Time now 2016-May-25 05:23 UTC.
Position N 35°51' E 034°20'.
Warning: this ship's position is 36 days out of date.

Length 92 m; draft 4 m.

Type: Ship (hazmat cat A). MMSI: 677041300.

Date/timePositionNaut miles runAvg speedWind from/ knotsBaromVisibWave heightAir tempDewpointWater temp
2016-Apr-18 19:33N 35°51' E 034°20'9 9.0
2016-Apr-18 18:33N 35°47' E 034°31'17 8.5
2016-Apr-18 16:33N 35°36' E 034°47'9 9.5
2016-Apr-18 15:33N 35°30' E 034°55'1010.0
2016-Apr-18 14:33N 35°22' E 035°04'1010.0
2016-Apr-18 13:33N 35°15' E 035°12'1010.2
2016-Apr-18 12:33N 35°07' E 035°20'10 9.9
2016-Apr-18 11:33N 34°60' E 035°28'9 9.0
2016-Apr-18 10:33N 34°55' E 035°37'9 9.3
2016-Apr-18 09:33N 34°55' E 035°49'2 2.1
2016-Apr-18 08:33N 34°53' E 035°49'1 1.4
2016-Apr-18 07:33N 34°54' E 035°50'0 0.0
2016-Apr-18 06:27N 34°54' E 035°50'1 0.1
2016-Apr-18 00:33N 34°54' E 035°50'2 0.8
2016-Apr-17 22:29N 34°54' E 035°52'0 0.0
2016-Apr-17 20:26N 34°54' E 035°52'0 0.0
2016-Apr-17 18:14N 34°54' E 035°52'0 0.0
2016-Apr-17 17:32N 34°54' E 035°52'0 0.0
2016-Apr-17 15:26N 34°54' E 035°52'0 0.0
2016-Apr-17 14:32N 34°54' E 035°52'0 0.0
2016-Apr-17 13:32N 34°54' E 035°52'0 0.0
2016-Apr-17 12:29N 34°54' E 035°52'0 0.0
2016-Apr-17 08:31N 34°54' E 035°52'0 0.0
2016-Apr-17 07:31N 34°54' E 035°52'0 0.0
2016-Apr-15 23:30N 34°54' E 035°52'0 0.0
2016-Apr-15 22:33N 34°54' E 035°52'0 0.0
2016-Apr-15 21:33N 34°54' E 035°52'0 0.0
2016-Apr-15 20:33N 34°54' E 035°52'0 0.0
2016-Apr-15 19:30N 34°54' E 035°52'0 0.0
2016-Apr-15 18:24N 34°54' E 035°52'0 0.0
2016-Apr-15 17:06N 34°54' E 035°52'  
Track history (hours):
 
Tides and Currents Weather Stations Pressure Air Temp Water Temp Dewpoint Dewpoint Depression Visibility Wind Speed Wind Dir Waves Ship Positions

Lady Eman

Last reported at 2016-Apr-18 19:33 UTC. Time now 2016-May-25 05:23 UTC.
Position N 35°51' E 034°20'.
Warning: this ship's position is 36 days out of date.

Length 92 m; draft 4 m.

Type: Ship (hazmat cat A). MMSI: 677041300.

Date/timePositionNaut miles runAvg speedWind from/ knotsBaromVisibWave heightAir tempDewpointWater temp
2016-Apr-18 19:33N 35°51' E 034°20'9 9.0
2016-Apr-18 18:33N 35°47' E 034°31'17 8.5
2016-Apr-18 16:33N 35°36' E 034°47'9 9.5
2016-Apr-18 15:33N 35°30' E 034°55'1010.0
2016-Apr-18 14:33N 35°22' E 035°04'1010.0
2016-Apr-18 13:33N 35°15' E 035°12'1010.2
2016-Apr-18 12:33N 35°07' E 035°20'10 9.9
2016-Apr-18 11:33N 34°60' E 035°28'9 9.0
2016-Apr-18 10:33N 34°55' E 035°37'9 9.3
2016-Apr-18 09:33N 34°55' E 035°49'2 2.1
2016-Apr-18 08:33N 34°53' E 035°49'1 1.4
2016-Apr-18 07:33N 34°54' E 035°50'0 0.0
2016-Apr-18 06:27N 34°54' E 035°50'1 0.1
2016-Apr-18 00:33N 34°54' E 035°50'2 0.8
2016-Apr-17 22:29N 34°54' E 035°52'0 0.0
2016-Apr-17 20:26N 34°54' E 035°52'0 0.0
2016-Apr-17 18:14N 34°54' E 035°52'0 0.0
2016-Apr-17 17:32N 34°54' E 035°52'0 0.0
2016-Apr-17 15:26N 34°54' E 035°52'0 0.0
2016-Apr-17 14:32N 34°54' E 035°52'0 0.0
2016-Apr-17 13:32N 34°54' E 035°52'0 0.0
2016-Apr-17 12:29N 34°54' E 035°52'0 0.0
2016-Apr-17 08:31N 34°54' E 035°52'0 0.0
2016-Apr-17 07:31N 34°54' E 035°52'0 0.0
2016-Apr-15 23:30N 34°54' E 035°52'0 0.0
2016-Apr-15 22:33N 34°54' E 035°52'0 0.0
2016-Apr-15 21:33N 34°54' E 035°52'0 0.0
2016-Apr-15 20:33N 34°54' E 035°52'0 0.0
2016-Apr-15 19:30N 34°54' E 035°52'0 0.0
2016-Apr-15 18:24N 34°54' E 035°52'0 0.0
2016-Apr-15 17:06N 34°54' E 035°52'  

Dump ship's entire track history